Time;durP1;ratioP1;P1;durP2;ratioP2;P2;SDS_P1;SDS_P2;PMS_P1;PMS_P2;Temp;Humidity;BMP_temperature;BMP_pressure;BME280_temperature;BME280_humidity;BME280_pressure;Samples;Min_cycle;Max_cycle;Signal;HPM_P1;HPM_P2
2022/12/10 00:01:15;;;;;;;33.30;12.57;;;-2.20;99.90;;;;;;5073466;28;20430;-68
2022/12/10 00:03:41;;;;;;;32.33;13.00;;;-2.20;99.90;;;;;;5069863;28;20119;-68
2022/12/10 00:06:10;;;;;;;32.10;11.38;;;-2.20;99.90;;;;;;5073361;28;20466;-69
2022/12/10 00:08:36;;;;;;;34.47;11.75;;;-2.20;99.90;;;;;;5064885;28;20044;-68
2022/12/10 00:11:04;;;;;;;34.75;13.63;;;-2.20;99.90;;;;;;5075548;28;20378;-69
2022/12/10 00:13:30;;;;;;;30.52;12.98;;;-2.20;99.90;;;;;;5089195;28;20040;-68
2022/12/10 00:16:01;;;;;;;;;;;-2.20;99.90;;;;;;5089887;28;20054;-68
2022/12/10 00:18:27;;;;;;;37.05;13.85;;;-2.20;99.90;;;;;;5089800;28;20385;-68
2022/12/10 00:20:54;;;;;;;34.60;15.10;;;-2.10;99.90;;;;;;5074399;28;20052;-68
2022/12/10 00:23:20;;;;;;;37.38;13.90;;;-2.10;99.90;;;;;;5090373;28;20071;-69
2022/12/10 00:25:45;;;;;;;35.30;13.57;;;-2.10;99.90;;;;;;5077278;28;20079;-68
2022/12/10 00:28:11;;;;;;;31.27;11.60;;;-2.10;99.90;;;;;;5080465;28;20069;-68
2022/12/10 00:30:37;;;;;;;24.60;10.23;;;-2.20;99.90;;;;;;5080275;28;20048;-68
2022/12/10 00:33:02;;;;;;;36.67;13.73;;;-2.30;99.90;;;;;;5073128;28;20052;-71
2022/12/10 00:35:28;;;;;;;31.05;12.10;;;-2.40;99.90;;;;;;5072471;28;20055;-68
2022/12/10 00:37:54;;;;;;;36.22;12.15;;;-2.50;99.90;;;;;;5073489;28;20486;-68
2022/12/10 00:40:20;;;;;;;27.95;12.05;;;-2.50;99.90;;;;;;5061253;28;20397;-68
2022/12/10 00:42:46;;;;;;;31.08;12.82;;;-2.50;99.90;;;;;;5076599;28;20052;-69
2022/12/10 00:45:12;;;;;;;32.53;12.90;;;-2.60;99.90;;;;;;5072643;28;20052;-68
2022/12/10 00:47:37;;;;;;;32.67;11.65;;;-2.60;99.90;;;;;;5055774;28;20509;-68
2022/12/10 00:50:03;;;;;;;43.88;14.65;;;-2.50;99.90;;;;;;5086089;28;20117;-71
2022/12/10 00:52:29;;;;;;;35.20;13.77;;;-2.50;99.90;;;;;;5084930;28;20048;-68
2022/12/10 00:54:54;;;;;;;35.42;13.75;;;-2.40;99.90;;;;;;5074609;28;20568;-69
2022/12/10 00:57:20;;;;;;;42.75;14.07;;;-2.30;99.90;;;;;;5082226;28;20119;-69
2022/12/10 00:59:46;;;;;;;36.63;14.52;;;-2.30;99.90;;;;;;5072941;28;20131;-68
2022/12/10 01:02:11;;;;;;;37.50;14.10;;;-2.20;99.90;;;;;;5072479;28;20079;-69
2022/12/10 01:04:37;;;;;;;39.25;13.57;;;-2.20;99.90;;;;;;5068276;28;20599;-69
2022/12/10 01:07:03;;;;;;;33.90;12.00;;;-2.10;99.90;;;;;;5093284;28;20097;-68
2022/12/10 01:09:30;;;;;;;37.90;15.40;;;-2.00;99.90;;;;;;5092453;28;20089;-69
2022/12/10 01:11:59;;;;;;;37.67;14.15;;;-2.00;99.90;;;;;;5092120;28;20161;-68
2022/12/10 01:14:29;;;;;;;34.80;13.35;;;-2.00;99.90;;;;;;5092616;28;20131;-69
2022/12/10 01:17:00;;;;;;;39.40;14.05;;;-1.90;99.90;;;;;;5093209;28;20047;-68
2022/12/10 01:19:26;;;;;;;43.97;16.63;;;-1.80;99.90;;;;;;5091786;28;20536;-69
2022/12/10 01:21:53;;;;;;;45.45;15.05;;;-1.80;99.90;;;;;;5093023;28;20080;-68
2022/12/10 01:24:24;;;;;;;41.33;14.57;;;-1.40;99.90;;;;;;5091824;28;20656;-68
2022/12/10 01:26:49;;;;;;;38.65;13.70;;;-1.60;99.90;;;;;;5092636;28;20405;-69
2022/12/10 01:29:15;;;;;;;39.58;14.68;;;-1.60;99.90;;;;;;5092439;28;20048;-68
2022/12/10 01:31:42;;;;;;;37.08;14.40;;;-1.50;99.90;;;;;;5075131;28;20385;-69
2022/12/10 01:34:11;;;;;;;37.78;14.63;;;-1.50;99.90;;;;;;5072569;28;20044;-71
2022/12/10 01:36:39;;;;;;;34.90;13.82;;;-1.50;99.90;;;;;;5091915;28;20056;-69
2022/12/10 01:39:07;;;;;;;38.20;15.02;;;-1.50;99.90;;;;;;5074603;28;20048;-68
2022/12/10 01:41:39;;;;;;;38.72;15.48;;;-1.50;99.90;;;;;;5073816;28;20048;-69
2022/12/10 01:44:25;;;;;;;39.47;14.55;;;-1.50;99.90;;;;;;5092866;28;20050;-69
2022/12/10 01:46:53;;;;;;;40.90;14.25;;;-1.40;99.90;;;;;;5092593;28;20051;-68
2022/12/10 01:49:22;;;;;;;37.55;13.18;;;-1.40;99.90;;;;;;5091231;28;20063;-68
2022/12/10 01:51:53;;;;;;;42.20;14.23;;;-1.30;99.90;;;;;;5092475;28;20048;-68
2022/12/10 01:54:30;;;;;;;35.85;13.60;;;-1.30;99.90;;;;;;5091543;28;20040;-68
2022/12/10 01:57:02;;;;;;;37.35;13.32;;;-1.20;99.90;;;;;;5074324;28;20443;-69
2022/12/10 01:59:29;;;;;;;42.65;14.95;;;-1.20;99.90;;;;;;5091467;28;20056;-69
2022/12/10 02:02:14;;;;;;;38.50;14.80;;;-1.10;99.90;;;;;;5092420;28;20048;-68
2022/12/10 02:04:45;;;;;;;40.80;13.88;;;-1.10;99.90;;;;;;5090199;28;20448;-68
2022/12/10 02:07:26;;;;;;;40.28;14.10;;;-1.10;99.90;;;;;;5092089;28;20040;-71
2022/12/10 02:10:10;;;;;;;45.35;15.43;;;-1.10;99.90;;;;;;5091890;28;20055;-69
2022/12/10 02:13:01;;;;;;;40.05;14.13;;;-1.10;99.90;;;;;;5091367;28;20052;-69
2022/12/10 02:15:32;;;;;;;37.28;14.05;;;-1.10;99.90;;;;;;5091398;28;20137;-69
2022/12/10 02:18:10;;;;;;;34.03;12.50;;;-1.10;99.90;;;;;;5092236;28;20089;-68
2022/12/10 02:20:52;;;;;;;39.42;14.30;;;-1.10;99.90;;;;;;5090445;28;20060;-69
2022/12/10 02:23:37;;;;;;;35.20;13.40;;;-1.10;99.90;;;;;;5091556;28;20052;-70
2022/12/10 02:26:06;;;;;;;44.70;14.65;;;-1.20;99.90;;;;;;5090711;28;20086;-68
2022/12/10 02:28:39;;;;;;;40.22;13.63;;;-1.20;99.90;;;;;;5073435;28;20405;-69
2022/12/10 02:31:06;;;;;;;43.10;16.23;;;-1.20;99.90;;;;;;5091825;28;20056;-68
2022/12/10 02:33:35;;;;;;;47.28;14.85;;;-1.20;99.90;;;;;;5090729;28;20051;-68
2022/12/10 02:36:03;;;;;;;44.22;15.57;;;-1.20;99.90;;;;;;5071879;28;20059;-69
2022/12/10 02:38:36;;;;;;;43.50;14.40;;;-1.30;99.90;;;;;;5090437;28;20048;-68
2022/12/10 02:41:10;;;;;;;45.22;15.65;;;-1.30;99.90;;;;;;5062437;28;20375;-68
2022/12/10 02:43:36;;;;;;;38.55;15.18;;;-1.30;99.90;;;;;;5070686;28;20032;-70
2022/12/10 02:46:04;;;;;;;36.95;13.23;;;-1.40;99.90;;;;;;5070167;28;20063;-69
2022/12/10 02:48:32;;;;;;;47.38;14.88;;;-1.40;99.90;;;;;;5070469;28;20045;-68
2022/12/10 02:50:58;;;;;;;43.10;15.00;;;-1.50;99.90;;;;;;5073592;28;20052;-70
2022/12/10 02:53:23;;;;;;;45.33;15.50;;;-1.50;99.90;;;;;;5084724;28;20040;-69
2022/12/10 02:55:58;;;;;;;51.30;15.75;;;-1.60;99.90;;;;;;5090423;28;20235;-69
2022/12/10 02:58:50;;;;;;;43.25;15.18;;;-1.70;99.90;;;;;;5090893;28;20056;-68
2022/12/10 03:01:39;;;;;;;44.60;15.10;;;-1.60;99.90;;;;;;5089626;28;20056;-70
2022/12/10 03:04:16;;;;;;;47.05;16.33;;;-1.70;99.90;;;;;;5090887;28;20060;-68
2022/12/10 03:06:55;;;;;;;43.67;15.65;;;-1.70;99.90;;;;;;5090712;28;20052;-68
2022/12/10 03:09:34;;;;;;;46.40;15.95;;;-1.70;99.90;;;;;;5090357;28;20128;-68
2022/12/10 03:12:07;;;;;;;46.25;16.05;;;-1.80;99.90;;;;;;5090764;28;20048;-68
2022/12/10 03:14:33;;;;;;;46.90;16.17;;;-1.80;99.90;;;;;;5090384;28;20109;-69
2022/12/10 03:17:01;;;;;;;44.08;14.98;;;-1.80;99.90;;;;;;5072231;28;20570;-68
2022/12/10 03:19:40;;;;;;;49.25;15.32;;;-1.80;99.90;;;;;;5089400;28;20614;-68
2022/12/10 03:22:07;;;;;;;46.70;15.55;;;-1.80;99.90;;;;;;5072463;28;20382;-69
2022/12/10 03:24:35;;;;;;;48.55;15.50;;;-1.80;99.90;;;;;;5089970;28;20048;-68
2022/12/10 03:27:06;;;;;;;39.10;14.65;;;-1.90;99.90;;;;;;5090437;28;20052;-69
2022/12/10 03:29:56;;;;;;;39.05;15.48;;;-1.90;99.90;;;;;;5090292;28;20054;-69
2022/12/10 03:32:24;;;;;;;46.92;15.98;;;-1.90;99.90;;;;;;5090377;28;20101;-72
2022/12/10 03:34:52;;;;;;;45.80;16.00;;;-1.90;99.90;;;;;;5089591;28;20092;-69
2022/12/10 03:37:19;;;;;;;48.58;15.35;;;-2.00;99.90;;;;;;5090483;28;20140;-69
2022/12/10 03:39:45;;;;;;;49.72;17.25;;;-2.00;99.90;;;;;;5088815;28;20060;-68
2022/12/10 03:42:11;;;;;;;;;;;-2.00;99.90;;;;;;5090708;28;20087;-68
2022/12/10 03:44:40;;;;;;;48.28;14.65;;;-2.00;99.90;;;;;;5089901;28;19982;-68
2022/12/10 03:47:08;;;;;;;46.70;17.50;;;-2.10;99.90;;;;;;5090383;28;20398;-68
2022/12/10 03:49:34;;;;;;;45.97;16.23;;;-2.10;99.90;;;;;;5088976;28;20423;-69
2022/12/10 03:52:00;;;;;;;45.05;16.38;;;-2.20;99.90;;;;;;5089958;28;20578;-69
2022/12/10 03:54:25;;;;;;;51.13;17.20;;;-2.10;99.90;;;;;;5054736;28;20044;-69
2022/12/10 03:56:51;;;;;;;40.65;14.07;;;-2.10;99.90;;;;;;5089791;28;20055;-69
2022/12/10 03:59:17;;;;;;;58.05;18.27;;;-2.10;99.90;;;;;;5089128;28;20048;-69
2022/12/10 04:01:42;;;;;;;49.50;17.20;;;-2.10;99.90;;;;;;5088910;28;20607;-68
2022/12/10 04:04:08;;;;;;;40.38;14.07;;;-2.10;99.90;;;;;;5089795;28;20090;-69
2022/12/10 04:06:36;;;;;;;51.85;17.50;;;-2.10;99.90;;;;;;5089021;28;20131;-69
2022/12/10 04:09:02;;;;;;;44.95;15.18;;;-2.20;99.90;;;;;;5089835;28;20056;-69
2022/12/10 04:11:28;;;;;;;51.78;15.38;;;-2.20;99.90;;;;;;5089202;28;20044;-69
2022/12/10 04:16:38;;;;;;;46.42;16.15;;;-2.30;99.90;;;;;;5089558;28;20054;-68
2022/12/10 04:19:07;;;;;;;44.60;15.75;;;-2.20;99.90;;;;;;5089181;28;20504;-69
2022/12/10 04:27:12;;;;;;;42.83;14.63;;;-2.30;99.90;;;;;;5051745;28;20173;-68
2022/12/10 04:29:38;;;;;;;54.17;15.02;;;-2.40;99.90;;;;;;5071767;28;20049;-69
2022/12/10 04:32:04;;;;;;;50.78;16.65;;;-2.40;99.90;;;;;;5089995;28;20065;-68
2022/12/10 04:34:29;;;;;;;44.75;14.63;;;-2.40;99.90;;;;;;5088270;28;20052;-69
2022/12/10 04:36:57;;;;;;;53.00;16.02;;;-2.40;99.90;;;;;;5088786;28;20048;-69
2022/12/10 04:39:23;;;;;;;53.42;16.58;;;-2.40;99.90;;;;;;5071662;28;20438;-69
2022/12/10 04:41:50;;;;;;;51.25;15.75;;;-2.40;99.90;;;;;;5088963;28;20082;-70
2022/12/10 04:44:16;;;;;;;54.88;15.55;;;-2.40;99.90;;;;;;5089282;28;20044;-68
2022/12/10 04:46:42;;;;;;;41.15;15.75;;;-2.40;99.90;;;;;;5088898;28;20511;-69
2022/12/10 04:49:08;;;;;;;52.90;18.30;;;-2.50;99.90;;;;;;5089411;28;20048;-69
2022/12/10 04:51:34;;;;;;;49.53;17.60;;;-2.50;99.90;;;;;;5088337;28;20652;-69
2022/12/10 04:53:59;;;;;;;;;;;-2.50;99.90;;;;;;5089763;28;20040;-68
2022/12/10 04:56:26;;;;;;;44.35;16.13;;;-2.50;99.90;;;;;;5089242;28;19977;-68
2022/12/10 04:58:51;;;;;;;47.08;17.08;;;-2.60;99.90;;;;;;5089492;28;20090;-69
2022/12/10 05:01:20;;;;;;;49.55;17.80;;;-2.60;99.90;;;;;;5089350;28;20048;-69
2022/12/10 05:03:46;;;;;;;47.20;16.25;;;-2.60;99.90;;;;;;5089248;28;20081;-68
2022/12/10 05:06:13;;;;;;;57.25;17.50;;;-2.60;99.90;;;;;;5070479;28;20044;-69
2022/12/10 05:08:40;;;;;;;44.42;15.68;;;-2.60;99.90;;;;;;5088930;28;20151;-68
2022/12/10 05:11:12;;;;;;;54.53;17.50;;;-2.60;99.90;;;;;;5092206;28;20118;-68
2022/12/10 05:13:39;;;;;;;52.70;15.93;;;-2.60;99.90;;;;;;5092947;28;20040;-68
2022/12/10 05:16:07;;;;;;;51.45;17.33;;;-2.50;99.90;;;;;;5093088;28;20083;-69
2022/12/10 05:18:33;;;;;;;52.38;16.13;;;-2.50;99.90;;;;;;5092633;28;20048;-70
2022/12/10 05:21:05;;;;;;;48.30;17.10;;;-2.60;99.90;;;;;;5092220;28;20048;-68
2022/12/10 05:23:31;;;;;;;45.53;17.02;;;-2.60;99.90;;;;;;5092728;28;20039;-71
2022/12/10 05:26:12;;;;;;;56.30;17.83;;;-2.50;99.90;;;;;;5092525;28;20147;-69
2022/12/10 05:28:44;;;;;;;52.65;17.38;;;-2.50;99.90;;;;;;5092629;28;20109;-69
2022/12/10 05:31:19;;;;;;;54.83;16.90;;;-2.50;99.90;;;;;;5074933;28;20059;-68
2022/12/10 05:33:44;;;;;;;49.38;16.45;;;-2.60;99.90;;;;;;5092490;28;20080;-69
2022/12/10 05:36:13;;;;;;;49.67;17.13;;;-2.60;99.90;;;;;;5091775;28;20091;-68
2022/12/10 05:38:39;;;;;;;54.85;19.83;;;-2.60;99.90;;;;;;5091934;28;20124;-69
2022/12/10 05:41:14;;;;;;;44.60;17.10;;;-2.60;99.90;;;;;;5091637;28;20063;-69
2022/12/10 05:43:40;;;;;;;60.63;19.48;;;-2.70;99.90;;;;;;5092489;28;20048;-70
2022/12/10 05:46:07;;;;;;;;;;;-2.70;99.90;;;;;;5092926;28;20101;-69
2022/12/10 05:48:34;;;;;;;54.00;16.77;;;-2.70;99.90;;;;;;5092624;28;20366;-71
2022/12/10 05:51:08;;;;;;;54.47;19.20;;;-2.70;99.90;;;;;;5091318;28;20515;-69
2022/12/10 05:53:34;;;;;;;53.00;18.40;;;-2.70;99.90;;;;;;5074029;28;20100;-72
2022/12/10 05:56:01;;;;;;;;;;;-2.60;99.90;;;;;;5092470;28;20112;-69
2022/12/10 05:58:28;;;;;;;57.60;18.27;;;-2.70;99.90;;;;;;5092172;28;19920;-69
2022/12/10 06:00:55;;;;;;;55.78;18.02;;;-2.70;99.90;;;;;;5091585;28;20655;-68
2022/12/10 06:03:21;;;;;;;55.40;17.90;;;-2.70;99.90;;;;;;5091958;28;20048;-69
2022/12/10 06:05:47;;;;;;;47.90;18.60;;;-2.70;99.90;;;;;;5089673;28;20065;-69
2022/12/10 06:08:12;;;;;;;52.17;18.02;;;-2.80;99.90;;;;;;5092617;28;20048;-68
2022/12/10 06:10:38;;;;;;;53.53;17.88;;;-2.70;99.90;;;;;;5091119;28;20549;-70
2022/12/10 06:13:04;;;;;;;63.33;19.08;;;-2.70;99.90;;;;;;5092265;28;20048;-69
2022/12/10 06:15:30;;;;;;;51.58;18.00;;;-2.70;99.90;;;;;;5091931;28;20044;-69
2022/12/10 06:17:56;;;;;;;55.78;17.20;;;-2.80;99.90;;;;;;5091660;28;20303;-69
2022/12/10 06:20:23;;;;;;;;;;;-2.80;99.90;;;;;;5090749;28;20052;-68
2022/12/10 06:22:49;;;;;;;58.40;19.63;;;-2.80;99.90;;;;;;5091131;28;20385;-69
2022/12/10 06:25:14;;;;;;;61.35;20.67;;;-2.80;99.90;;;;;;5073732;28;20056;-69
2022/12/10 06:27:40;;;;;;;53.33;18.63;;;-2.80;99.90;;;;;;5091014;28;20071;-69
2022/12/10 06:30:06;;;;;;;53.97;17.63;;;-2.80;99.90;;;;;;5091671;28;20079;-69
2022/12/10 06:32:32;;;;;;;63.97;17.73;;;-2.80;99.90;;;;;;5091879;28;20048;-69
2022/12/10 06:34:58;;;;;;;57.95;18.42;;;-2.80;99.90;;;;;;5089373;28;20028;-68
2022/12/10 06:37:23;;;;;;;58.05;17.35;;;-2.60;99.90;;;;;;5091558;28;20112;-68
2022/12/10 06:39:52;;;;;;;62.28;18.55;;;-2.80;99.90;;;;;;5090725;28;20036;-69
2022/12/10 06:42:19;;;;;;;47.17;16.58;;;-2.80;99.90;;;;;;5091354;28;20051;-69
2022/12/10 06:44:45;;;;;;;61.10;19.83;;;-2.80;99.90;;;;;;5090991;28;20043;-69
2022/12/10 06:47:11;;;;;;;60.90;19.23;;;-2.70;99.90;;;;;;5091593;28;20044;-69
2022/12/10 06:49:36;;;;;;;;;;;-2.80;99.90;;;;;;5091191;28;20048;-69
2022/12/10 06:52:03;;;;;;;65.20;18.65;;;-2.80;99.90;;;;;;5091044;28;19962;-69
2022/12/10 06:54:29;;;;;;;56.35;17.83;;;-2.80;99.90;;;;;;5090967;28;20040;-68
2022/12/10 06:56:56;;;;;;;43.67;18.35;;;-2.80;99.90;;;;;;5072390;28;20083;-68
2022/12/10 06:59:21;;;;;;;;;;;-2.80;99.90;;;;;;5090714;28;20123;-69
2022/12/10 07:01:47;;;;;;;55.55;17.55;;;-2.80;99.90;;;;;;5090784;28;20404;-68
2022/12/10 07:04:13;;;;;;;61.60;19.08;;;-2.80;99.90;;;;;;5089480;28;20051;-69
2022/12/10 07:06:38;;;;;;;57.70;17.55;;;-2.80;99.90;;;;;;5072878;28;20677;-69
2022/12/10 07:09:04;;;;;;;51.50;17.25;;;-2.70;99.90;;;;;;5090336;28;20590;-68
2022/12/10 07:11:30;;;;;;;54.45;19.25;;;-2.80;99.90;;;;;;5090882;28;20081;-68
2022/12/10 07:13:57;;;;;;;56.63;16.60;;;-2.80;99.90;;;;;;5090421;28;20044;-69
2022/12/10 07:16:25;;;;;;;63.25;17.83;;;-2.80;99.90;;;;;;5090933;28;20424;-68
2022/12/10 07:18:52;;;;;;;48.25;15.40;;;-2.80;99.90;;;;;;5089518;28;20047;-69
2022/12/10 07:21:26;;;;;;;59.78;18.67;;;-2.80;99.90;;;;;;5089786;28;20432;-68
2022/12/10 07:23:54;;;;;;;60.13;18.40;;;-2.80;99.90;;;;;;5090080;28;20075;-69
2022/12/10 07:26:21;;;;;;;50.53;17.23;;;-2.80;99.90;;;;;;5090420;28;20044;-68
2022/12/10 07:28:47;;;;;;;54.25;18.80;;;-2.70;99.90;;;;;;5090258;28;20058;-69
2022/12/10 07:31:12;;;;;;;52.75;18.20;;;-2.80;99.90;;;;;;5090577;28;20047;-69
2022/12/10 07:33:38;;;;;;;54.45;17.75;;;-2.70;99.90;;;;;;5090618;28;20257;-68
2022/12/10 07:36:09;;;;;;;53.95;17.77;;;-2.60;99.90;;;;;;5081598;28;20047;-68
2022/12/10 07:38:35;;;;;;;51.88;15.63;;;-2.60;99.90;;;;;;5090138;28;20052;-69
2022/12/10 07:41:10;;;;;;;55.70;17.77;;;-2.50;99.90;;;;;;5088808;28;20054;-69
2022/12/10 07:43:38;;;;;;;50.53;17.15;;;-2.50;99.90;;;;;;5090631;28;20044;-69
2022/12/10 07:46:06;;;;;;;61.47;17.23;;;-2.50;99.90;;;;;;5089839;28;20933;-69
2022/12/10 07:48:33;;;;;;;61.03;19.83;;;-2.50;99.90;;;;;;5090478;28;20071;-69
2022/12/10 07:50:59;;;;;;;51.50;16.55;;;-2.40;99.90;;;;;;5088054;28;20071;-69
2022/12/10 07:53:25;;;;;;;57.53;17.33;;;-2.40;99.90;;;;;;5086146;28;20082;-68
2022/12/10 07:55:50;;;;;;;60.00;18.08;;;-2.30;99.90;;;;;;5089408;28;20048;-69
2022/12/10 07:58:16;;;;;;;57.67;19.05;;;-2.30;99.90;;;;;;5079066;28;20071;-70
2022/12/10 08:00:42;;;;;;;52.85;16.30;;;-2.20;99.90;;;;;;5075910;28;20052;-68
2022/12/10 08:03:07;;;;;;;56.30;18.30;;;-2.10;99.90;;;;;;5089603;28;20040;-69
2022/12/10 08:05:33;;;;;;;54.28;16.25;;;-2.10;99.90;;;;;;5089457;28;20055;-69
2022/12/10 08:07:59;;;;;;;50.50;17.73;;;-2.00;99.90;;;;;;5089419;28;20126;-69
2022/12/10 08:10:24;;;;;;;48.97;16.67;;;-2.00;99.90;;;;;;5087923;28;20059;-68
2022/12/10 08:12:50;;;;;;;57.05;19.13;;;-2.00;99.90;;;;;;5088316;28;20047;-69
2022/12/10 08:15:16;;;;;;;47.55;17.30;;;-1.90;99.90;;;;;;5089187;28;20111;-69
2022/12/10 08:17:41;;;;;;;57.28;20.48;;;-1.90;99.90;;;;;;5090140;28;20043;-69
2022/12/10 08:20:08;;;;;;;53.83;17.52;;;-1.90;99.90;;;;;;5088467;28;20040;-69
2022/12/10 08:22:35;;;;;;;60.55;18.67;;;-1.90;99.90;;;;;;5090059;28;20081;-69
2022/12/10 08:25:01;;;;;;;49.97;17.90;;;-1.80;99.90;;;;;;5089066;28;20051;-69
2022/12/10 08:27:27;;;;;;;;;;;-1.80;99.90;;;;;;5089142;28;20101;-69
2022/12/10 08:29:52;;;;;;;55.15;18.30;;;-1.70;99.90;;;;;;5089247;28;19924;-70
2022/12/10 08:32:18;;;;;;;61.60;17.98;;;-1.70;99.90;;;;;;5090071;28;20044;-68
2022/12/10 08:34:44;;;;;;;52.60;17.48;;;-1.70;99.90;;;;;;5070755;28;20051;-69
2022/12/10 08:37:10;;;;;;;59.10;19.63;;;-1.70;99.90;;;;;;5089253;28;20467;-68
2022/12/10 08:39:35;;;;;;;59.17;20.17;;;-1.70;99.90;;;;;;5089482;28;20489;-68
2022/12/10 08:42:01;;;;;;;54.40;18.67;;;-1.60;99.90;;;;;;5088993;28;20181;-68
2022/12/10 08:44:27;;;;;;;45.80;17.00;;;-1.60;99.90;;;;;;5091267;28;20534;-69
2022/12/10 08:46:52;;;;;;;51.33;16.48;;;-1.60;99.90;;;;;;5092750;28;20446;-71
2022/12/10 08:49:18;;;;;;;50.83;17.83;;;-1.50;99.90;;;;;;5092521;28;20732;-68
2022/12/10 08:51:44;;;;;;;58.53;19.98;;;-1.60;99.90;;;;;;5093371;28;20135;-68
2022/12/10 08:54:09;;;;;;;62.67;19.20;;;-1.60;99.90;;;;;;5089295;28;20055;-68
2022/12/10 08:56:35;;;;;;;45.83;16.13;;;-1.60;99.90;;;;;;5092246;28;20062;-69
2022/12/10 08:59:01;;;;;;;49.72;17.23;;;-1.50;99.90;;;;;;5072801;28;20119;-66
2022/12/10 09:01:27;;;;;;;54.53;16.95;;;-1.50;99.90;;;;;;5073257;28;20493;-68
2022/12/10 09:03:53;;;;;;;55.92;17.38;;;-1.40;99.90;;;;;;5055609;28;20113;-69
2022/12/10 09:06:21;;;;;;;50.58;19.38;;;-1.40;99.90;;;;;;5071615;28;20054;-68
2022/12/10 09:08:47;;;;;;;52.67;18.92;;;-1.40;99.90;;;;;;5071355;28;20394;-68
2022/12/10 09:11:23;;;;;;;57.05;17.42;;;-1.30;99.90;;;;;;5089308;28;20039;-68
2022/12/10 09:13:49;;;;;;;59.67;18.63;;;-1.30;99.90;;;;;;5093429;28;20036;-68
2022/12/10 09:16:15;;;;;;;;;;;-1.30;99.90;;;;;;5085317;28;20098;-68
2022/12/10 09:18:41;;;;;;;54.75;17.52;;;-1.30;99.90;;;;;;5089419;28;19920;-69
2022/12/10 09:21:15;;;;;;;57.80;18.40;;;-1.20;99.90;;;;;;5091295;28;20040;-69
2022/12/10 09:23:42;;;;;;;55.92;18.20;;;-1.20;99.90;;;;;;5090020;28;20042;-69
2022/12/10 09:26:14;;;;;;;52.15;19.67;;;-1.20;99.90;;;;;;5091685;28;20118;-69
2022/12/10 09:28:41;;;;;;;56.53;19.10;;;-1.20;99.90;;;;;;5090184;28;20160;-69
2022/12/10 09:31:08;;;;;;;54.33;17.67;;;-1.20;99.90;;;;;;5083227;28;20105;-69
2022/12/10 09:33:35;;;;;;;52.40;16.48;;;-1.20;99.90;;;;;;5086158;28;20032;-66
2022/12/10 09:36:04;;;;;;;53.67;17.02;;;-1.10;99.90;;;;;;5081250;28;20414;-67
2022/12/10 09:38:29;;;;;;;51.78;17.95;;;-1.00;99.90;;;;;;5082426;28;20090;-67
2022/12/10 09:41:30;;;;;;;57.30;19.98;;;-0.90;99.90;;;;;;5080781;28;20088;-67
2022/12/10 09:44:00;;;;;;;57.30;18.15;;;-0.70;99.90;;;;;;5084355;28;20540;-67
2022/12/10 09:46:55;;;;;;;52.25;18.73;;;-0.60;99.90;;;;;;5072333;28;20525;-67
2022/12/10 09:49:45;;;;;;;52.35;17.88;;;-0.50;99.90;;;;;;5071084;28;20053;-67
2022/12/10 09:52:15;;;;;;;48.95;16.92;;;-0.50;99.90;;;;;;5088836;28;20100;-66
2022/12/10 09:54:48;;;;;;;52.92;19.00;;;-0.40;99.90;;;;;;5092642;28;20751;-66
2022/12/10 09:57:34;;;;;;;50.22;15.40;;;-0.40;99.90;;;;;;5071608;28;20446;-67
2022/12/10 10:00:07;;;;;;;55.72;19.23;;;-0.30;99.90;;;;;;5092485;28;20132;-70
2022/12/10 10:02:32;;;;;;;60.47;18.70;;;-0.40;99.90;;;;;;5057050;28;20071;-66
2022/12/10 10:05:06;;;;;;;58.80;20.45;;;-0.40;99.90;;;;;;5071923;28;20052;-66
2022/12/10 10:07:37;;;;;;;52.63;18.58;;;-0.40;99.90;;;;;;5073935;28;20044;-68
2022/12/10 10:10:11;;;;;;;56.00;18.67;;;-0.40;99.90;;;;;;5074231;28;20429;-66
2022/12/10 10:12:38;;;;;;;52.78;18.65;;;-0.30;99.90;;;;;;5079511;28;20139;-67
2022/12/10 10:15:14;;;;;;;53.55;20.33;;;-0.30;99.90;;;;;;5071689;28;20123;-67
2022/12/10 10:17:45;;;;;;;52.40;18.30;;;-0.30;99.90;;;;;;5075969;28;20097;-67
2022/12/10 10:20:12;;;;;;;49.72;18.10;;;-0.30;99.90;;;;;;5090996;28;20048;-67
2022/12/10 10:22:39;;;;;;;44.13;17.60;;;-0.20;99.90;;;;;;5092620;28;20097;-66
2022/12/10 10:25:09;;;;;;;52.20;18.88;;;-0.20;99.90;;;;;;5091677;28;20065;-70
2022/12/10 10:27:35;;;;;;;51.33;18.92;;;-0.20;99.90;;;;;;5092280;28;20043;-66
2022/12/10 10:30:02;;;;;;;51.60;19.38;;;-0.20;99.90;;;;;;5074490;28;20055;-67
2022/12/10 10:32:37;;;;;;;52.65;18.73;;;-0.10;99.90;;;;;;5092253;28;20070;-66
2022/12/10 10:35:04;;;;;;;50.35;16.90;;;-0.10;99.90;;;;;;5091204;28;20047;-68
2022/12/10 10:37:36;;;;;;;55.03;18.17;;;-0.10;99.90;;;;;;5092265;28;20048;-66
2022/12/10 10:40:02;;;;;;;52.92;19.50;;;0.00;99.90;;;;;;5090453;28;20044;-66
2022/12/10 10:42:39;;;;;;;48.13;17.95;;;0.10;99.90;;;;;;5089052;28;20044;-66
2022/12/10 10:45:31;;;;;;;51.65;18.67;;;0.10;99.90;;;;;;5090367;28;20042;-70
2022/12/10 10:48:14;;;;;;;47.55;18.40;;;0.10;99.90;;;;;;5080513;28;20464;-66
2022/12/10 10:50:43;;;;;;;58.00;19.77;;;0.00;99.90;;;;;;5089759;28;20044;-66
2022/12/10 10:53:27;;;;;;;54.33;19.13;;;-0.10;99.90;;;;;;5087965;28;20051;-67
2022/12/10 10:55:56;;;;;;;51.50;18.13;;;-0.10;99.90;;;;;;5090173;28;20044;-66
2022/12/10 10:58:24;;;;;;;58.78;19.13;;;-0.20;99.90;;;;;;5077315;28;20139;-67
2022/12/10 11:01:02;;;;;;;56.03;19.95;;;-0.30;99.90;;;;;;5080860;28;20056;-67
2022/12/10 11:03:30;;;;;;;55.58;19.17;;;-0.30;99.90;;;;;;5085125;28;20036;-67
2022/12/10 11:05:57;;;;;;;54.50;19.48;;;-0.30;99.90;;;;;;5079844;28;20048;-67
2022/12/10 11:08:27;;;;;;;59.03;20.13;;;-0.30;99.90;;;;;;5064886;28;20051;-67
2022/12/10 11:11:02;;;;;;;57.17;18.92;;;-0.30;99.90;;;;;;5084739;28;20476;-67
2022/12/10 11:13:31;;;;;;;72.10;21.30;;;-0.40;99.90;;;;;;5083712;28;20101;-67
2022/12/10 11:16:08;;;;;;;60.63;19.77;;;-0.30;99.90;;;;;;5082537;28;20059;-68
2022/12/10 11:18:37;;;;;;;61.80;19.50;;;-0.40;99.90;;;;;;5086306;28;20075;-67
2022/12/10 11:21:11;;;;;;;58.83;19.52;;;-0.40;99.90;;;;;;5083351;28;20481;-66
2022/12/10 11:23:40;;;;;;;55.05;18.48;;;-0.40;99.90;;;;;;5084528;28;20036;-68
2022/12/10 11:26:17;;;;;;;56.35;21.40;;;-0.50;99.90;;;;;;5082687;28;20059;-68
2022/12/10 11:29:02;;;;;;;63.03;20.10;;;-0.50;99.90;;;;;;5080766;28;20082;-69
2022/12/10 11:31:39;;;;;;;50.58;17.15;;;-0.50;99.90;;;;;;5081289;28;20047;-69
2022/12/10 11:34:32;;;;;;;63.47;20.13;;;-0.50;99.90;;;;;;5076198;28;20101;-68
2022/12/10 11:37:21;;;;;;;61.30;20.42;;;-0.50;99.90;;;;;;5085355;28;20040;-68
2022/12/10 11:40:14;;;;;;;65.25;23.52;;;-0.50;99.90;;;;;;5080369;28;20406;-68
2022/12/10 11:42:46;;;;;;;55.70;17.90;;;-0.50;99.90;;;;;;5078387;28;20064;-68
2022/12/10 11:45:30;;;;;;;56.70;19.40;;;-0.50;99.90;;;;;;5083566;28;20123;-71
2022/12/10 11:48:31;;;;;;;55.20;20.13;;;-0.50;99.90;;;;;;5083732;28;20449;-68
2022/12/10 11:51:03;;;;;;;63.50;21.65;;;-0.60;99.90;;;;;;5078108;28;20133;-69
2022/12/10 11:53:59;;;;;;;62.22;20.63;;;-0.60;99.90;;;;;;5079877;28;20048;-68
2022/12/10 11:56:28;;;;;;;58.75;19.73;;;-0.60;99.90;;;;;;5081786;28;20044;-68
2022/12/10 11:59:23;;;;;;;60.70;19.90;;;-0.60;99.90;;;;;;5078206;28;20127;-68
2022/12/10 12:01:55;;;;;;;67.63;21.83;;;-0.60;99.90;;;;;;5073631;28;20510;-68
2022/12/10 12:04:26;;;;;;;62.03;20.60;;;-0.60;99.90;;;;;;5064560;28;20189;-68
2022/12/10 12:07:29;;;;;;;60.13;21.48;;;-0.60;99.90;;;;;;5082643;28;20048;-69
2022/12/10 12:10:38;;;;;;;62.72;18.90;;;-0.60;99.90;;;;;;5082644;28;20048;-68
2022/12/10 12:13:18;;;;;;;62.58;19.67;;;-0.60;99.90;;;;;;5080345;28;20048;-68
2022/12/10 12:15:56;;;;;;;55.88;19.25;;;-0.60;99.90;;;;;;5068492;28;20079;-68
2022/12/10 12:18:43;;;;;;;59.17;18.90;;;-0.60;99.90;;;;;;5078400;28;20528;-68
2022/12/10 12:21:15;;;;;;;62.95;19.00;;;-0.70;99.90;;;;;;5068990;28;20056;-68
2022/12/10 12:23:55;;;;;;;59.17;18.55;;;-0.70;99.90;;;;;;5067146;28;20161;-68
2022/12/10 12:26:29;;;;;;;60.58;18.85;;;-0.70;99.90;;;;;;5079550;28;20497;-68
2022/12/10 12:28:58;;;;;;;59.30;19.20;;;-0.60;99.90;;;;;;5070686;28;20739;-69
2022/12/10 12:31:37;;;;;;;51.08;18.52;;;-0.70;99.90;;;;;;5080579;28;20148;-68
2022/12/10 12:34:06;;;;;;;67.60;19.80;;;-0.70;99.90;;;;;;5081382;28;20059;-68
2022/12/10 12:36:34;;;;;;;51.08;17.40;;;-0.70;99.90;;;;;;5067141;28;20080;-67
2022/12/10 12:39:12;;;;;;;46.72;16.40;;;-0.80;99.90;;;;;;5079647;28;20048;-67
2022/12/10 12:41:51;;;;;;;52.30;18.33;;;-0.80;99.90;;;;;;5067222;28;20591;-68
2022/12/10 12:44:24;;;;;;;52.28;18.23;;;-0.80;99.90;;;;;;5072509;28;20051;-68
2022/12/10 12:46:50;;;;;;;54.78;18.08;;;-0.70;99.90;;;;;;5072403;28;20557;-68
2022/12/10 12:49:22;;;;;;;;;;;-0.70;99.90;;;;;;5066416;28;20719;-68
2022/12/10 12:52:18;;;;;;;52.10;17.55;;;-0.70;99.90;;;;;;5089052;28;19924;-68
2022/12/10 12:54:45;;;;;;;49.47;16.85;;;-0.70;99.90;;;;;;5065300;28;20500;-68